createdAt,value
2018-09-22T00:02:06.636Z,14.38
2018-09-22T00:04:35.212Z,14.39
2018-09-22T00:07:03.787Z,14.37
2018-09-22T00:09:32.353Z,14.36
2018-09-22T00:12:00.918Z,14.38
2018-09-22T00:14:29.505Z,14.41
2018-09-22T00:16:58.070Z,14.42
2018-09-22T00:19:26.720Z,14.47
2018-09-22T00:21:55.332Z,14.46
2018-09-22T00:24:23.872Z,14.27
2018-09-22T00:26:52.415Z,14.13
2018-09-22T00:29:20.992Z,14.09
2018-09-22T00:31:49.532Z,14.05
2018-09-22T00:34:18.114Z,14.16
2018-09-22T00:36:46.687Z,14.17
2018-09-22T00:39:15.321Z,14.18
2018-09-22T00:41:44.394Z,14.05
2018-09-22T00:44:13.005Z,14.06
2018-09-22T00:46:41.597Z,14.04
2018-09-22T00:49:10.165Z,14.13
2018-09-22T00:51:38.705Z,14.06
2018-09-22T00:54:07.316Z,14.14
2018-09-22T00:56:35.861Z,14.02
2018-09-22T00:59:04.467Z,13.95
2018-09-22T01:01:33.173Z,14.02
2018-09-22T01:04:01.824Z,13.93
2018-09-22T01:06:30.385Z,13.93
2018-09-22T01:08:58.961Z,13.87
2018-09-22T01:11:27.513Z,13.80
2018-09-22T01:13:56.082Z,13.80
2018-09-22T01:16:24.690Z,13.89
2018-09-22T01:18:53.253Z,13.89
2018-09-22T01:21:21.847Z,13.95
2018-09-22T01:23:50.400Z,13.89
2018-09-22T01:26:18.978Z,13.86
2018-09-22T01:28:47.522Z,13.86
2018-09-22T01:31:16.092Z,13.75
2018-09-22T01:33:44.648Z,13.88
2018-09-22T01:36:13.272Z,13.93
2018-09-22T01:38:41.858Z,13.88
2018-09-22T01:41:10.456Z,13.87
2018-09-22T01:43:39.026Z,13.78
2018-09-22T01:46:07.652Z,13.74
2018-09-22T01:48:36.203Z,13.76
2018-09-22T01:51:04.816Z,13.69
2018-09-22T01:53:33.384Z,13.61
2018-09-22T01:56:01.976Z,13.65
2018-09-22T01:58:30.533Z,13.59
2018-09-22T02:00:59.157Z,13.65
2018-09-22T02:03:27.747Z,13.68
2018-09-22T02:05:56.362Z,13.60
2018-09-22T02:08:24.920Z,13.62
2018-09-22T02:10:53.504Z,13.52
2018-09-22T02:13:22.044Z,13.55
2018-09-22T02:15:50.781Z,13.46
2018-09-22T02:18:19.397Z,13.45
2018-09-22T02:20:47.992Z,13.39
2018-09-22T02:23:16.555Z,13.31
2018-09-22T02:25:45.150Z,13.28
2018-09-22T02:29:38.085Z,13.27
2018-09-22T02:32:06.750Z,13.18
2018-09-22T02:34:35.369Z,13.15
2018-09-22T02:37:03.974Z,13.22
2018-09-22T02:39:32.544Z,13.18
2018-09-22T02:42:01.149Z,13.14
2018-09-22T02:44:29.734Z,13.15
2018-09-22T02:46:58.372Z,13.19
2018-09-22T02:49:26.931Z,13.12
2018-09-22T02:51:55.557Z,13.16
2018-09-22T02:54:24.132Z,13.11
2018-09-22T02:56:52.700Z,13.09
2018-09-22T02:59:21.811Z,13.08
2018-09-22T03:01:50.427Z,13.07
2018-09-22T03:04:19.305Z,13.12
2018-09-22T03:06:48.208Z,13.11
2018-09-22T03:09:16.770Z,13.04
2018-09-22T03:11:46.018Z,12.91
2018-09-22T03:14:14.620Z,12.84
2018-09-22T03:16:43.205Z,12.93
2018-09-22T03:19:11.761Z,12.65
2018-09-22T03:21:40.339Z,12.74
2018-09-22T03:24:08.905Z,12.76
2018-09-22T03:26:37.497Z,12.67
2018-09-22T03:29:06.262Z,12.68
2018-09-22T03:31:34.893Z,12.59
2018-09-22T03:34:03.496Z,12.36
2018-09-22T03:36:32.110Z,12.45
2018-09-22T03:39:00.687Z,12.53
2018-09-22T03:41:29.263Z,12.49
2018-09-22T03:43:57.792Z,12.53
2018-09-22T03:46:26.402Z,12.36
2018-09-22T03:48:54.972Z,12.35
2018-09-22T03:51:23.559Z,12.40
2018-09-22T03:53:52.103Z,12.51
2018-09-22T03:56:20.716Z,12.40
2018-09-22T03:58:49.329Z,12.42
2018-09-22T04:01:17.940Z,12.37
2018-09-22T04:03:46.539Z,12.37
2018-09-22T04:06:15.161Z,12.19
2018-09-22T04:08:43.709Z,12.22
2018-09-22T04:11:12.289Z,12.15
2018-09-22T04:13:40.924Z,12.18
2018-09-22T04:16:09.497Z,12.08
2018-09-22T04:18:38.080Z,12.03
2018-09-22T04:21:06.664Z,12.05
2018-09-22T04:23:35.234Z,12.12
2018-09-22T04:26:03.820Z,12.23
2018-09-22T04:28:32.405Z,12.25
2018-09-22T04:31:01.270Z,12.16
2018-09-22T04:33:30.608Z,12.16
2018-09-22T04:35:59.224Z,12.06
2018-09-22T04:38:27.775Z,12.04
2018-09-22T04:40:57.946Z,11.88
2018-09-22T04:43:27.303Z,11.88
2018-09-22T04:45:55.862Z,11.81
2018-09-22T04:48:24.605Z,11.85
2018-09-22T04:50:53.361Z,12.01
2018-09-22T04:53:22.225Z,12.07
2018-09-22T04:55:51.079Z,12.14
2018-09-22T04:58:19.671Z,12.15
2018-09-22T05:00:48.237Z,12.17
2018-09-22T05:03:16.837Z,12.16
2018-09-22T05:05:45.399Z,12.18
2018-09-22T05:08:13.975Z,12.22
2018-09-22T05:10:42.517Z,12.27
2018-09-22T05:13:11.071Z,12.26
2018-09-22T05:15:39.621Z,12.44
2018-09-22T05:18:08.204Z,12.40
2018-09-22T05:20:36.778Z,12.35
2018-09-22T05:23:05.413Z,12.34
2018-09-22T05:25:33.980Z,12.35
2018-09-22T05:28:02.577Z,12.33
2018-09-22T05:30:31.128Z,12.47
2018-09-22T05:32:59.734Z,12.52
2018-09-22T05:35:28.276Z,12.68
2018-09-22T05:37:56.869Z,12.81
2018-09-22T05:40:25.462Z,13.00
2018-09-22T05:42:54.037Z,13.11
2018-09-22T05:45:22.584Z,12.95
2018-09-22T05:47:51.194Z,13.15
2018-09-22T05:50:19.752Z,13.30
2018-09-22T05:52:48.349Z,13.32
2018-09-22T05:55:16.904Z,13.30
2018-09-22T05:57:45.489Z,13.23
2018-09-22T06:00:14.036Z,13.39
2018-09-22T06:02:42.614Z,13.42
2018-09-22T06:05:11.188Z,13.47
2018-09-22T06:07:40.118Z,13.56
2018-09-22T06:10:08.741Z,13.69
2018-09-22T06:12:37.398Z,13.93
2018-09-22T06:15:06.758Z,14.04
2018-09-22T06:17:35.298Z,14.28
2018-09-22T06:20:03.960Z,14.45
2018-09-22T06:22:32.607Z,14.59
2018-09-22T06:25:01.157Z,14.73
2018-09-22T06:27:29.845Z,14.95
2018-09-22T06:29:58.420Z,15.15
2018-09-22T06:32:26.969Z,14.98
2018-09-22T06:34:55.568Z,15.17
2018-09-22T06:37:24.134Z,15.00
2018-09-22T06:39:52.748Z,15.27
2018-09-22T06:42:21.288Z,15.32
2018-09-22T06:44:49.909Z,15.34
2018-09-22T06:47:18.530Z,15.54
2018-09-22T06:49:47.973Z,15.64
2018-09-22T06:52:16.557Z,15.83
2018-09-22T06:54:45.159Z,15.63
2018-09-22T06:57:13.745Z,15.83
2018-09-22T06:59:42.321Z,15.87
2018-09-22T07:02:10.869Z,15.77
2018-09-22T07:04:39.834Z,15.77
2018-09-22T07:07:08.641Z,16.10
2018-09-22T07:09:37.210Z,16.54
2018-09-22T07:12:05.752Z,16.86
2018-09-22T07:14:34.348Z,17.22
2018-09-22T07:17:03.611Z,18.03
2018-09-22T07:19:32.473Z,18.46
2018-09-22T07:22:06.232Z,18.95
2018-09-22T07:24:34.788Z,19.22
2018-09-22T07:27:03.322Z,19.31
2018-09-22T07:29:31.900Z,18.98
2018-09-22T07:32:00.469Z,19.16
2018-09-22T07:34:29.037Z,20.28
2018-09-22T07:36:57.598Z,21.18
2018-09-22T07:39:26.183Z,22.63
2018-09-22T07:41:54.731Z,22.46
2018-09-22T07:44:23.431Z,22.98
2018-09-22T07:46:51.953Z,22.68
2018-09-22T07:49:20.535Z,23.45
2018-09-22T07:51:49.073Z,23.11
2018-09-22T07:54:17.616Z,21.05
2018-09-22T07:56:46.140Z,19.72
2018-09-22T07:59:14.727Z,20.05
2018-09-22T08:01:43.351Z,19.74
2018-09-22T08:04:11.917Z,19.63
2018-09-22T08:06:40.447Z,18.91
2018-09-22T08:09:09.365Z,17.77
2018-09-22T08:11:37.939Z,17.24
2018-09-22T08:14:06.554Z,17.21
2018-09-22T08:16:35.090Z,17.31
2018-09-22T08:19:03.646Z,16.50
2018-09-22T08:21:32.197Z,16.25
2018-09-22T08:24:00.757Z,16.09
2018-09-22T08:26:29.297Z,16.19
2018-09-22T08:28:57.865Z,16.23
2018-09-22T08:31:26.423Z,16.35
2018-09-22T08:33:54.928Z,16.21
2018-09-22T08:36:23.666Z,16.18
2018-09-22T08:38:52.028Z,16.31
2018-09-22T08:41:20.579Z,16.26
2018-09-22T08:43:49.147Z,16.16
2018-09-22T08:46:17.720Z,16.18
2018-09-22T08:48:46.236Z,16.54
2018-09-22T08:51:14.819Z,16.90
2018-09-22T08:53:43.347Z,16.52
2018-09-22T08:56:11.893Z,16.48
2018-09-22T08:58:40.393Z,16.60
2018-09-22T09:01:08.943Z,16.85
2018-09-22T09:03:38.304Z,16.40
2018-09-22T09:06:06.890Z,16.23
2018-09-22T09:08:35.432Z,16.49
2018-09-22T09:11:03.988Z,16.38
2018-09-22T09:13:32.516Z,16.77
2018-09-22T09:16:01.073Z,16.89
2018-09-22T09:18:29.589Z,17.21
2018-09-22T09:20:58.130Z,17.14
2018-09-22T09:23:26.704Z,17.34
2018-09-22T09:25:55.244Z,17.22
2018-09-22T09:28:23.772Z,17.43
2018-09-22T09:30:52.318Z,17.54
2018-09-22T09:33:20.885Z,17.50
2018-09-22T09:35:49.528Z,17.49
2018-09-22T09:38:18.057Z,17.38
2018-09-22T09:40:46.638Z,17.43
2018-09-22T09:43:15.191Z,17.53
2018-09-22T09:45:43.764Z,17.48
2018-09-22T09:48:12.272Z,17.40
2018-09-22T09:50:40.915Z,17.13
2018-09-22T09:53:09.436Z,17.15
2018-09-22T09:55:38.020Z,17.52
2018-09-22T09:58:06.917Z,17.96
2018-09-22T10:00:40.656Z,18.12
2018-09-22T10:03:09.157Z,18.13
2018-09-22T10:05:37.793Z,18.22
2018-09-22T10:08:06.531Z,18.41
2018-09-22T10:10:35.314Z,18.48
2018-09-22T10:13:03.853Z,19.34
2018-09-22T10:15:32.412Z,20.03
2018-09-22T10:18:00.944Z,20.27
2018-09-22T10:20:29.524Z,20.79
2018-09-22T10:22:58.093Z,20.51
2018-09-22T10:25:26.600Z,20.46
2018-09-22T10:27:55.188Z,20.65
2018-09-22T10:30:23.722Z,20.53
2018-09-22T10:32:52.317Z,20.30
2018-09-22T10:35:20.848Z,20.17
2018-09-22T10:37:50.787Z,19.97
2018-09-22T10:40:20.286Z,20.04
2018-09-22T10:42:49.789Z,19.55
2018-09-22T10:45:18.423Z,20.08
2018-09-22T10:47:46.977Z,20.22
2018-09-22T10:50:16.365Z,19.96
2018-09-22T10:52:47.079Z,20.07
2018-09-22T10:55:15.612Z,20.55
2018-09-22T10:57:44.177Z,20.59
2018-09-22T11:00:12.717Z,20.76
2018-09-22T11:02:41.275Z,20.97
2018-09-22T11:05:10.765Z,21.25
2018-09-22T11:07:40.341Z,21.36
2018-09-22T11:10:09.630Z,22.15
2018-09-22T11:12:38.270Z,22.68
2018-09-22T11:15:08.343Z,22.02
2018-09-22T11:17:38.141Z,22.09
2018-09-22T11:20:08.275Z,22.01
2018-09-22T11:22:38.096Z,22.62
2018-09-22T11:25:07.049Z,23.41
2018-09-22T11:27:37.002Z,23.61
2018-09-22T11:30:07.220Z,23.56
2018-09-22T11:32:37.066Z,23.44
2018-09-22T11:35:05.635Z,23.76
2018-09-22T11:37:34.215Z,24.40
2018-09-22T11:40:02.765Z,23.77
2018-09-22T11:42:31.315Z,23.49
2018-09-22T11:44:59.852Z,24.49
2018-09-22T11:47:28.395Z,24.88
2018-09-22T11:49:56.932Z,25.38
2018-09-22T11:52:25.505Z,25.58
2018-09-22T11:54:54.036Z,26.31
2018-09-22T11:57:23.218Z,26.57
2018-09-22T11:59:51.780Z,25.99
2018-09-22T12:02:20.376Z,25.67
2018-09-22T12:04:48.908Z,25.16
2018-09-22T12:07:17.465Z,24.45
2018-09-22T12:09:45.972Z,23.63
2018-09-22T12:12:14.586Z,23.90
2018-09-22T12:14:43.108Z,23.75
2018-09-22T12:17:11.669Z,23.24
2018-09-22T12:19:40.213Z,22.57
2018-09-22T12:22:08.773Z,21.97
2018-09-22T12:24:37.293Z,21.72
2018-09-22T12:27:06.001Z,21.74
2018-09-22T12:29:34.530Z,22.81
2018-09-22T12:32:03.183Z,22.80
2018-09-22T12:34:31.646Z,22.51
2018-09-22T12:37:00.232Z,22.51
2018-09-22T12:39:28.777Z,23.02
2018-09-22T12:41:57.356Z,23.05
2018-09-22T12:44:25.891Z,22.36
2018-09-22T12:46:54.432Z,22.78
2018-09-22T12:49:23.034Z,22.91
2018-09-22T12:51:51.541Z,23.64
2018-09-22T12:54:20.097Z,23.66
2018-09-22T12:56:48.620Z,23.92
2018-09-22T12:59:17.184Z,24.24
2018-09-22T13:01:45.704Z,23.82
2018-09-22T13:04:14.273Z,23.93
2018-09-22T13:06:42.801Z,24.88
2018-09-22T13:09:11.885Z,25.49
2018-09-22T13:11:40.417Z,24.79
2018-09-22T13:14:08.992Z,25.18
2018-09-22T13:16:37.526Z,25.49
2018-09-22T13:19:06.157Z,25.52
2018-09-22T13:21:34.706Z,25.82
2018-09-22T13:24:03.353Z,25.66
2018-09-22T13:26:31.916Z,25.26
2018-09-22T13:29:00.457Z,24.75
2018-09-22T13:31:28.988Z,24.14
2018-09-22T13:33:57.744Z,23.45
2018-09-22T13:36:26.275Z,22.57
2018-09-22T13:38:54.830Z,22.25
2018-09-22T13:41:23.358Z,22.71
2018-09-22T13:43:51.916Z,23.12
2018-09-22T13:46:20.443Z,23.22
2018-09-22T13:48:49.040Z,22.41
2018-09-22T13:51:17.552Z,22.77
2018-09-22T13:53:46.110Z,22.04
2018-09-22T13:56:14.850Z,22.11
2018-09-22T13:58:43.364Z,22.18
2018-09-22T14:01:11.895Z,21.89
2018-09-22T14:03:40.514Z,21.71
2018-09-22T14:06:24.831Z,21.47
2018-09-22T14:09:03.579Z,21.38
2018-09-22T14:11:39.841Z,21.62
2018-09-22T14:14:10.467Z,21.54
2018-09-22T14:16:42.632Z,22.44
2018-09-22T14:19:17.591Z,22.92
2018-09-22T14:21:52.201Z,23.61
2018-09-22T14:24:26.717Z,23.95
2018-09-22T14:26:55.290Z,24.29
2018-09-22T14:29:23.896Z,23.96
2018-09-22T14:31:52.418Z,23.60
2018-09-22T14:34:21.004Z,22.79
2018-09-22T14:39:17.048Z,21.80
2018-09-22T14:41:45.564Z,22.11
2018-09-22T14:44:14.120Z,22.45
2018-09-22T14:46:42.612Z,21.74
2018-09-22T14:49:11.216Z,21.56
2018-09-22T14:51:39.757Z,21.63
2018-09-22T14:54:08.418Z,21.50
2018-09-22T14:56:37.034Z,21.80
2018-09-22T14:59:05.718Z,21.78
2018-09-22T15:01:34.344Z,21.55
2018-09-22T15:04:02.912Z,21.53
2018-09-22T15:06:31.495Z,21.66
2018-09-22T15:09:00.048Z,21.21
2018-09-22T15:11:28.583Z,21.50
2018-09-22T15:13:57.192Z,21.47
2018-09-22T15:16:25.704Z,21.74
2018-09-22T15:18:54.249Z,21.96
2018-09-22T15:21:22.797Z,21.89
2018-09-22T15:23:51.424Z,23.28
2018-09-22T15:26:19.924Z,23.18
2018-09-22T15:28:48.544Z,22.56
2018-09-22T15:31:17.108Z,22.78
2018-09-22T15:33:45.624Z,22.72
2018-09-22T15:36:14.180Z,23.39
2018-09-22T15:38:42.692Z,23.69
2018-09-22T15:41:11.273Z,23.17
2018-09-22T15:43:39.784Z,22.83
2018-09-22T15:46:08.342Z,22.55
2018-09-22T15:48:36.883Z,22.36
2018-09-22T15:51:05.509Z,22.15
2018-09-22T15:53:34.017Z,22.05
2018-09-22T15:56:02.565Z,21.79
2018-09-22T15:58:31.140Z,21.83
2018-09-22T16:00:59.774Z,22.40
2018-09-22T16:03:28.248Z,22.28
2018-09-22T16:05:56.793Z,21.74
2018-09-22T16:08:25.312Z,21.06
2018-09-22T16:10:53.861Z,20.99
2018-09-22T16:13:22.377Z,20.79
2018-09-22T16:15:50.923Z,20.57
2018-09-22T16:18:19.441Z,20.25
2018-09-22T16:20:47.984Z,20.21
2018-09-22T16:23:16.530Z,19.76
2018-09-22T16:25:45.169Z,19.59
2018-09-22T16:28:13.683Z,19.53
2018-09-22T16:30:42.239Z,19.36
2018-09-22T16:33:10.748Z,19.17
2018-09-22T16:35:39.320Z,18.98
2018-09-22T16:38:07.852Z,18.83
2018-09-22T16:40:36.424Z,18.90
2018-09-22T16:43:04.968Z,18.88
2018-09-22T16:45:33.524Z,18.82
2018-09-22T16:48:02.065Z,18.72
2018-09-22T16:50:30.669Z,18.39
2018-09-22T16:52:59.180Z,17.86
2018-09-22T16:55:27.755Z,17.81
2018-09-22T16:57:56.297Z,17.72
2018-09-22T17:00:24.867Z,17.68
2018-09-22T17:02:53.402Z,17.72
2018-09-22T17:05:21.976Z,17.48
2018-09-22T17:07:50.515Z,17.52
2018-09-22T17:10:19.084Z,17.48
2018-09-22T17:12:47.652Z,17.25
2018-09-22T17:15:16.260Z,17.21
2018-09-22T17:17:44.879Z,17.06
2018-09-22T17:20:13.453Z,16.93
2018-09-22T17:22:42.025Z,16.82
2018-09-22T17:25:10.602Z,16.72
2018-09-22T17:27:39.209Z,16.58
2018-09-22T17:30:07.776Z,16.57
2018-09-22T17:32:38.262Z,16.29
2018-09-22T17:35:07.844Z,16.25
2018-09-22T17:37:36.508Z,16.22
2018-09-22T17:40:05.144Z,16.28
2018-09-22T17:42:34.503Z,16.27
2018-09-22T17:45:03.149Z,16.22
2018-09-22T17:47:31.790Z,16.35
2018-09-22T17:50:00.312Z,16.40
2018-09-22T17:52:29.412Z,16.37
2018-09-22T17:54:57.988Z,16.28
2018-09-22T17:57:26.549Z,16.30
2018-09-22T17:59:55.894Z,16.19
2018-09-22T18:02:25.430Z,16.24
2018-09-22T18:04:53.996Z,16.13
2018-09-22T18:07:22.871Z,16.01
2018-09-22T18:09:51.774Z,16.10
2018-09-22T18:12:20.896Z,16.14
2018-09-22T18:14:49.477Z,16.08
2018-09-22T18:17:18.738Z,16.11
2018-09-22T18:19:47.316Z,16.00
2018-09-22T18:22:15.880Z,15.96
2018-09-22T18:24:44.420Z,15.97
2018-09-22T18:27:13.077Z,16.00
2018-09-22T18:29:41.613Z,15.78
2018-09-22T18:32:10.185Z,15.80
2018-09-22T18:34:38.721Z,15.74
2018-09-22T18:37:07.343Z,15.69
2018-09-22T18:39:35.904Z,15.61
2018-09-22T18:42:04.500Z,15.60
2018-09-22T18:44:34.034Z,15.61
2018-09-22T18:47:02.584Z,15.61
2018-09-22T18:49:31.133Z,15.63
2018-09-22T18:51:59.692Z,15.72
2018-09-22T18:54:28.229Z,15.65
2018-09-22T18:56:56.780Z,15.50
2018-09-22T18:59:25.313Z,15.51
2018-09-22T19:01:53.890Z,15.50
2018-09-22T19:04:22.409Z,15.43
2018-09-22T19:08:15.388Z,15.41
2018-09-22T19:10:43.924Z,15.33
2018-09-22T19:13:14.828Z,15.42
2018-09-22T19:15:50.624Z,15.57
2018-09-22T19:18:24.570Z,15.73
2018-09-22T19:21:11.297Z,15.71
2018-09-22T19:23:45.869Z,15.83
2018-09-22T19:26:19.335Z,15.95
2018-09-22T19:28:51.832Z,16.03
2018-09-22T19:31:24.256Z,16.08
2018-09-22T19:33:59.477Z,16.09
2018-09-22T19:36:32.500Z,16.17
2018-09-22T19:39:11.953Z,16.01
2018-09-22T19:41:50.469Z,16.05
2018-09-22T19:45:28.252Z,16.03
2018-09-22T19:49:05.784Z,16.07
2018-09-22T19:51:38.420Z,16.00
2018-09-22T19:54:07.072Z,15.74
2018-09-22T19:56:35.612Z,15.62
2018-09-22T19:59:04.189Z,15.63
2018-09-22T20:01:32.716Z,15.46
2018-09-22T20:04:01.304Z,15.37
2018-09-22T20:06:29.844Z,15.18
2018-09-22T20:08:58.421Z,15.04
2018-09-22T20:11:26.995Z,14.91
2018-09-22T20:13:55.544Z,14.62
2018-09-22T20:16:24.077Z,14.43
2018-09-22T20:18:52.648Z,14.24
2018-09-22T20:21:21.190Z,14.12
2018-09-22T20:23:49.758Z,14.05
2018-09-22T20:26:19.093Z,13.97
2018-09-22T20:28:47.697Z,14.00
2018-09-22T20:31:16.838Z,14.12
2018-09-22T20:33:46.276Z,14.24
2018-09-22T20:36:14.877Z,14.39
2018-09-22T20:38:43.457Z,14.48
2018-09-22T20:41:12.503Z,14.46
2018-09-22T20:43:44.533Z,14.57
2018-09-22T20:46:13.064Z,14.59
2018-09-22T20:48:41.624Z,14.58
2018-09-22T20:51:10.161Z,14.58
2018-09-22T20:53:38.795Z,14.58
2018-09-22T20:56:07.493Z,14.60
2018-09-22T20:58:36.072Z,14.58
2018-09-22T21:01:04.625Z,14.64
2018-09-22T21:03:33.201Z,14.68
2018-09-22T21:06:01.750Z,14.63
2018-09-22T21:08:30.324Z,14.56
2018-09-22T21:10:58.904Z,14.67
2018-09-22T21:13:27.493Z,14.73
2018-09-22T21:15:56.355Z,14.73
2018-09-22T21:18:24.883Z,14.73
2018-09-22T21:20:53.511Z,14.74
2018-09-22T21:23:22.101Z,14.75
2018-09-22T21:25:50.692Z,14.79
2018-09-22T21:28:19.235Z,14.73
2018-09-22T21:30:47.865Z,14.75
2018-09-22T21:33:16.349Z,14.61
2018-09-22T21:35:44.940Z,14.61
2018-09-22T21:38:13.476Z,14.71
2018-09-22T21:40:42.041Z,14.76
2018-09-22T21:43:10.578Z,14.65
2018-09-22T21:45:39.141Z,14.43
2018-09-22T21:48:07.693Z,14.51
2018-09-22T21:50:36.241Z,14.39
2018-09-22T21:53:04.784Z,14.54
2018-09-22T21:55:33.324Z,14.58
2018-09-22T21:58:01.865Z,14.56
2018-09-22T22:00:30.481Z,14.54
2018-09-22T22:02:59.151Z,14.51
2018-09-22T22:05:27.799Z,14.52
2018-09-22T22:07:56.349Z,14.61
2018-09-22T22:10:25.087Z,14.55
2018-09-22T22:12:53.626Z,14.51
2018-09-22T22:15:22.211Z,14.49
2018-09-22T22:17:50.737Z,14.53
2018-09-22T22:20:19.316Z,14.54
2018-09-22T22:22:47.864Z,14.47
2018-09-22T22:25:16.448Z,14.42
2018-09-22T22:27:44.991Z,14.46
2018-09-22T22:30:13.607Z,14.48
2018-09-22T22:32:42.157Z,14.41
2018-09-22T22:35:10.818Z,14.33
2018-09-22T22:37:39.308Z,14.36
2018-09-22T22:40:07.923Z,14.23
2018-09-22T22:42:36.453Z,14.03
2018-09-22T22:45:05.153Z,13.88
2018-09-22T22:47:33.702Z,13.81
2018-09-22T22:50:02.276Z,13.86
2018-09-22T22:52:33.531Z,13.76
2018-09-22T22:55:02.121Z,13.67
2018-09-22T22:57:30.648Z,13.62
2018-09-22T22:59:59.211Z,13.67
2018-09-22T23:02:27.786Z,13.75
2018-09-22T23:04:56.429Z,13.88
2018-09-22T23:07:25.000Z,13.96
2018-09-22T23:09:53.674Z,14.01
2018-09-22T23:12:24.315Z,13.97
2018-09-22T23:14:52.936Z,13.85
2018-09-22T23:17:21.533Z,13.89
2018-09-22T23:19:50.112Z,14.00
2018-09-22T23:22:18.639Z,13.96
2018-09-22T23:24:47.164Z,13.92
2018-09-22T23:27:16.724Z,13.96
2018-09-22T23:29:45.333Z,14.04
2018-09-22T23:32:13.912Z,14.00
2018-09-22T23:34:42.440Z,13.99
2018-09-22T23:37:11.016Z,13.96
2018-09-22T23:39:39.563Z,13.96
2018-09-22T23:42:08.140Z,13.64
2018-09-22T23:44:36.688Z,13.51
2018-09-22T23:47:05.314Z,13.57
2018-09-22T23:49:33.845Z,13.62
2018-09-22T23:52:02.404Z,13.70
2018-09-22T23:54:30.946Z,13.70
2018-09-22T23:56:59.504Z,13.69
2018-09-22T23:59:28.035Z,13.66
